sensor_id;sensor_type;location;lat;lon;timestamp;P1;durP1;ratioP1;P2;durP2;ratioP2
65377;SDS011;51982;51.042;13.806;2023-04-25T00:02:01;2.10;;;1.63;;
65377;SDS011;51982;51.042;13.806;2023-04-25T00:04:26;3.00;;;1.80;;
65377;SDS011;51982;51.042;13.806;2023-04-25T00:06:52;2.58;;;1.70;;
65377;SDS011;51982;51.042;13.806;2023-04-25T00:09:20;2.15;;;1.73;;
65377;SDS011;51982;51.042;13.806;2023-04-25T00:11:46;3.92;;;1.75;;
65377;SDS011;51982;51.042;13.806;2023-04-25T00:14:11;4.15;;;1.58;;
65377;SDS011;51982;51.042;13.806;2023-04-25T00:16:36;2.53;;;1.80;;
65377;SDS011;51982;51.042;13.806;2023-04-25T00:19:02;2.05;;;1.80;;
65377;SDS011;51982;51.042;13.806;2023-04-25T00:21:27;3.80;;;1.98;;
65377;SDS011;51982;51.042;13.806;2023-04-25T00:23:53;1.85;;;1.65;;
65377;SDS011;51982;51.042;13.806;2023-04-25T00:26:19;2.65;;;1.52;;
65377;SDS011;51982;51.042;13.806;2023-04-25T00:28:46;1.95;;;1.58;;
65377;SDS011;51982;51.042;13.806;2023-04-25T00:31:11;3.30;;;1.98;;
65377;SDS011;51982;51.042;13.806;2023-04-25T00:33:37;2.88;;;1.90;;
65377;SDS011;51982;51.042;13.806;2023-04-25T00:36:02;3.53;;;1.77;;
65377;SDS011;51982;51.042;13.806;2023-04-25T00:38:27;2.60;;;1.70;;
65377;SDS011;51982;51.042;13.806;2023-04-25T00:40:53;2.55;;;1.70;;
65377;SDS011;51982;51.042;13.806;2023-04-25T00:43:20;4.63;;;1.88;;
65377;SDS011;51982;51.042;13.806;2023-04-25T00:45:45;4.70;;;1.80;;
65377;SDS011;51982;51.042;13.806;2023-04-25T00:48:13;2.63;;;1.70;;
65377;SDS011;51982;51.042;13.806;2023-04-25T00:50:39;2.95;;;1.75;;
65377;SDS011;51982;51.042;13.806;2023-04-25T00:53:05;3.13;;;1.95;;
65377;SDS011;51982;51.042;13.806;2023-04-25T00:55:31;2.42;;;1.85;;
65377;SDS011;51982;51.042;13.806;2023-04-25T00:57:57;2.65;;;1.98;;
65377;SDS011;51982;51.042;13.806;2023-04-25T01:00:23;3.40;;;2.10;;
65377;SDS011;51982;51.042;13.806;2023-04-25T01:02:48;2.58;;;2.05;;
65377;SDS011;51982;51.042;13.806;2023-04-25T01:05:14;4.45;;;2.08;;
65377;SDS011;51982;51.042;13.806;2023-04-25T01:07:40;2.95;;;1.90;;
65377;SDS011;51982;51.042;13.806;2023-04-25T01:10:05;3.83;;;2.20;;
65377;SDS011;51982;51.042;13.806;2023-04-25T01:12:31;4.57;;;2.15;;
65377;SDS011;51982;51.042;13.806;2023-04-25T01:14:57;7.00;;;2.40;;
65377;SDS011;51982;51.042;13.806;2023-04-25T01:17:22;3.17;;;2.10;;
65377;SDS011;51982;51.042;13.806;2023-04-25T01:19:48;3.83;;;2.17;;
65377;SDS011;51982;51.042;13.806;2023-04-25T01:22:14;4.40;;;2.20;;
65377;SDS011;51982;51.042;13.806;2023-04-25T01:24:41;4.75;;;2.25;;
65377;SDS011;51982;51.042;13.806;2023-04-25T01:27:06;3.95;;;2.33;;
65377;SDS011;51982;51.042;13.806;2023-04-25T01:29:32;3.60;;;2.10;;
65377;SDS011;51982;51.042;13.806;2023-04-25T01:31:57;5.22;;;2.50;;
65377;SDS011;51982;51.042;13.806;2023-04-25T01:34:24;5.55;;;2.40;;
65377;SDS011;51982;51.042;13.806;2023-04-25T01:36:50;5.10;;;2.47;;
65377;SDS011;51982;51.042;13.806;2023-04-25T01:39:15;3.35;;;2.30;;
65377;SDS011;51982;51.042;13.806;2023-04-25T01:41:42;3.88;;;2.28;;
65377;SDS011;51982;51.042;13.806;2023-04-25T01:44:07;6.25;;;2.70;;
65377;SDS011;51982;51.042;13.806;2023-04-25T01:46:33;4.05;;;2.13;;
65377;SDS011;51982;51.042;13.806;2023-04-25T01:48:59;3.20;;;2.30;;
65377;SDS011;51982;51.042;13.806;2023-04-25T01:51:24;4.47;;;2.47;;
65377;SDS011;51982;51.042;13.806;2023-04-25T01:53:49;4.40;;;2.53;;
65377;SDS011;51982;51.042;13.806;2023-04-25T01:56:15;6.85;;;2.42;;
65377;SDS011;51982;51.042;13.806;2023-04-25T01:58:40;4.88;;;2.25;;
65377;SDS011;51982;51.042;13.806;2023-04-25T02:01:05;5.70;;;2.60;;
65377;SDS011;51982;51.042;13.806;2023-04-25T02:03:31;3.47;;;2.37;;
65377;SDS011;51982;51.042;13.806;2023-04-25T02:05:56;3.42;;;2.20;;
65377;SDS011;51982;51.042;13.806;2023-04-25T02:08:22;4.07;;;2.20;;
65377;SDS011;51982;51.042;13.806;2023-04-25T02:10:47;4.25;;;2.50;;
65377;SDS011;51982;51.042;13.806;2023-04-25T02:13:12;4.50;;;2.63;;
65377;SDS011;51982;51.042;13.806;2023-04-25T02:15:37;4.37;;;2.20;;
65377;SDS011;51982;51.042;13.806;2023-04-25T02:18:03;4.60;;;2.58;;
65377;SDS011;51982;51.042;13.806;2023-04-25T02:20:28;5.75;;;2.88;;
65377;SDS011;51982;51.042;13.806;2023-04-25T02:22:55;4.90;;;2.53;;
65377;SDS011;51982;51.042;13.806;2023-04-25T02:25:20;4.65;;;2.13;;
65377;SDS011;51982;51.042;13.806;2023-04-25T02:27:46;6.22;;;2.45;;
65377;SDS011;51982;51.042;13.806;2023-04-25T02:30:12;3.58;;;2.25;;
65377;SDS011;51982;51.042;13.806;2023-04-25T02:32:38;4.60;;;2.40;;
65377;SDS011;51982;51.042;13.806;2023-04-25T02:35:04;3.55;;;2.25;;
65377;SDS011;51982;51.042;13.806;2023-04-25T02:37:30;6.35;;;2.70;;
65377;SDS011;51982;51.042;13.806;2023-04-25T02:39:56;4.45;;;2.50;;
65377;SDS011;51982;51.042;13.806;2023-04-25T02:42:21;4.93;;;2.50;;
65377;SDS011;51982;51.042;13.806;2023-04-25T02:44:47;5.75;;;3.00;;
65377;SDS011;51982;51.042;13.806;2023-04-25T02:47:12;4.05;;;2.53;;
65377;SDS011;51982;51.042;13.806;2023-04-25T02:49:37;4.90;;;2.63;;
65377;SDS011;51982;51.042;13.806;2023-04-25T02:52:03;6.10;;;2.90;;
65377;SDS011;51982;51.042;13.806;2023-04-25T02:54:28;6.03;;;2.90;;
65377;SDS011;51982;51.042;13.806;2023-04-25T02:56:53;7.65;;;2.90;;
65377;SDS011;51982;51.042;13.806;2023-04-25T02:59:18;5.10;;;2.70;;
65377;SDS011;51982;51.042;13.806;2023-04-25T03:01:44;9.13;;;2.75;;
65377;SDS011;51982;51.042;13.806;2023-04-25T03:04:10;5.75;;;2.63;;
65377;SDS011;51982;51.042;13.806;2023-04-25T03:06:35;4.03;;;2.70;;
65377;SDS011;51982;51.042;13.806;2023-04-25T03:09:00;4.47;;;2.65;;
65377;SDS011;51982;51.042;13.806;2023-04-25T03:11:25;8.50;;;2.83;;
65377;SDS011;51982;51.042;13.806;2023-04-25T03:13:51;4.15;;;2.78;;
65377;SDS011;51982;51.042;13.806;2023-04-25T03:16:16;5.10;;;2.67;;
65377;SDS011;51982;51.042;13.806;2023-04-25T03:18:41;6.25;;;2.80;;
65377;SDS011;51982;51.042;13.806;2023-04-25T03:21:06;5.10;;;2.77;;
65377;SDS011;51982;51.042;13.806;2023-04-25T03:23:32;5.38;;;2.78;;
65377;SDS011;51982;51.042;13.806;2023-04-25T03:25:57;4.70;;;2.83;;
65377;SDS011;51982;51.042;13.806;2023-04-25T03:28:22;5.35;;;3.05;;
65377;SDS011;51982;51.042;13.806;2023-04-25T03:30:47;6.70;;;3.10;;
65377;SDS011;51982;51.042;13.806;2023-04-25T03:33:12;7.50;;;3.07;;
65377;SDS011;51982;51.042;13.806;2023-04-25T03:35:38;4.67;;;3.00;;
65377;SDS011;51982;51.042;13.806;2023-04-25T03:38:03;6.43;;;2.80;;
65377;SDS011;51982;51.042;13.806;2023-04-25T03:40:28;6.43;;;2.80;;
65377;SDS011;51982;51.042;13.806;2023-04-25T03:42:53;5.30;;;2.67;;
65377;SDS011;51982;51.042;13.806;2023-04-25T03:45:19;6.07;;;2.97;;
65377;SDS011;51982;51.042;13.806;2023-04-25T03:47:44;5.32;;;2.80;;
65377;SDS011;51982;51.042;13.806;2023-04-25T03:50:09;11.05;;;3.25;;
65377;SDS011;51982;51.042;13.806;2023-04-25T03:52:35;6.05;;;3.03;;
65377;SDS011;51982;51.042;13.806;2023-04-25T03:55:00;7.10;;;3.67;;
65377;SDS011;51982;51.042;13.806;2023-04-25T03:57:25;7.63;;;2.88;;
65377;SDS011;51982;51.042;13.806;2023-04-25T03:59:50;5.57;;;2.83;;
65377;SDS011;51982;51.042;13.806;2023-04-25T04:02:17;4.53;;;2.80;;
65377;SDS011;51982;51.042;13.806;2023-04-25T04:04:42;6.10;;;3.05;;
65377;SDS011;51982;51.042;13.806;2023-04-25T04:07:09;8.25;;;3.70;;
65377;SDS011;51982;51.042;13.806;2023-04-25T04:09:35;10.82;;;3.20;;
65377;SDS011;51982;51.042;13.806;2023-04-25T04:12:00;7.85;;;3.70;;
65377;SDS011;51982;51.042;13.806;2023-04-25T04:14:26;6.68;;;3.28;;
65377;SDS011;51982;51.042;13.806;2023-04-25T04:16:51;8.83;;;3.60;;
65377;SDS011;51982;51.042;13.806;2023-04-25T04:19:17;7.05;;;3.30;;
65377;SDS011;51982;51.042;13.806;2023-04-25T04:21:42;7.03;;;3.35;;
65377;SDS011;51982;51.042;13.806;2023-04-25T04:24:08;6.67;;;3.33;;
65377;SDS011;51982;51.042;13.806;2023-04-25T04:26:33;6.50;;;3.30;;
65377;SDS011;51982;51.042;13.806;2023-04-25T04:28:59;5.95;;;3.00;;
65377;SDS011;51982;51.042;13.806;2023-04-25T04:31:25;7.50;;;4.78;;
65377;SDS011;51982;51.042;13.806;2023-04-25T04:33:50;9.35;;;4.90;;
65377;SDS011;51982;51.042;13.806;2023-04-25T04:36:16;9.50;;;4.80;;
65377;SDS011;51982;51.042;13.806;2023-04-25T04:38:44;7.00;;;3.78;;
65377;SDS011;51982;51.042;13.806;2023-04-25T04:41:10;5.60;;;3.20;;
65377;SDS011;51982;51.042;13.806;2023-04-25T04:43:35;7.05;;;3.60;;
65377;SDS011;51982;51.042;13.806;2023-04-25T04:46:01;9.30;;;3.85;;
65377;SDS011;51982;51.042;13.806;2023-04-25T04:48:28;7.38;;;3.30;;
65377;SDS011;51982;51.042;13.806;2023-04-25T04:50:53;9.15;;;3.65;;
65377;SDS011;51982;51.042;13.806;2023-04-25T04:53:19;8.83;;;3.37;;
65377;SDS011;51982;51.042;13.806;2023-04-25T04:55:44;7.93;;;3.58;;
65377;SDS011;51982;51.042;13.806;2023-04-25T04:58:09;8.25;;;3.45;;
65377;SDS011;51982;51.042;13.806;2023-04-25T05:00:34;5.97;;;2.95;;
65377;SDS011;51982;51.042;13.806;2023-04-25T05:03:00;8.05;;;3.40;;
65377;SDS011;51982;51.042;13.806;2023-04-25T05:05:25;6.15;;;3.03;;
65377;SDS011;51982;51.042;13.806;2023-04-25T05:07:50;5.93;;;3.25;;
65377;SDS011;51982;51.042;13.806;2023-04-25T05:10:16;6.63;;;3.30;;
65377;SDS011;51982;51.042;13.806;2023-04-25T05:12:43;8.65;;;3.22;;
65377;SDS011;51982;51.042;13.806;2023-04-25T05:15:09;5.97;;;3.65;;
65377;SDS011;51982;51.042;13.806;2023-04-25T05:17:35;12.50;;;3.40;;
65377;SDS011;51982;51.042;13.806;2023-04-25T05:20:00;8.70;;;3.38;;
65377;SDS011;51982;51.042;13.806;2023-04-25T05:22:25;6.47;;;3.40;;
65377;SDS011;51982;51.042;13.806;2023-04-25T05:24:51;6.35;;;3.22;;
65377;SDS011;51982;51.042;13.806;2023-04-25T05:27:16;9.50;;;3.28;;
65377;SDS011;51982;51.042;13.806;2023-04-25T05:29:42;7.38;;;3.45;;
65377;SDS011;51982;51.042;13.806;2023-04-25T05:32:08;5.10;;;3.15;;
65377;SDS011;51982;51.042;13.806;2023-04-25T05:34:34;4.10;;;2.95;;
65377;SDS011;51982;51.042;13.806;2023-04-25T05:36:59;5.45;;;2.85;;
65377;SDS011;51982;51.042;13.806;2023-04-25T05:39:25;6.53;;;3.00;;
65377;SDS011;51982;51.042;13.806;2023-04-25T05:41:51;7.55;;;3.10;;
65377;SDS011;51982;51.042;13.806;2023-04-25T05:44:16;7.47;;;3.17;;
65377;SDS011;51982;51.042;13.806;2023-04-25T05:46:41;5.03;;;3.17;;
65377;SDS011;51982;51.042;13.806;2023-04-25T05:49:06;8.13;;;3.28;;
65377;SDS011;51982;51.042;13.806;2023-04-25T05:51:32;7.90;;;3.00;;
65377;SDS011;51982;51.042;13.806;2023-04-25T05:53:57;9.60;;;3.10;;
65377;SDS011;51982;51.042;13.806;2023-04-25T05:56:22;9.57;;;2.83;;
65377;SDS011;51982;51.042;13.806;2023-04-25T05:58:48;5.93;;;2.90;;
65377;SDS011;51982;51.042;13.806;2023-04-25T06:01:13;5.68;;;2.83;;
65377;SDS011;51982;51.042;13.806;2023-04-25T06:03:38;7.43;;;2.88;;
65377;SDS011;51982;51.042;13.806;2023-04-25T06:06:04;3.87;;;2.60;;
65377;SDS011;51982;51.042;13.806;2023-04-25T06:08:29;7.45;;;2.88;;
65377;SDS011;51982;51.042;13.806;2023-04-25T06:10:54;5.13;;;2.95;;
65377;SDS011;51982;51.042;13.806;2023-04-25T06:13:20;5.33;;;3.00;;
65377;SDS011;51982;51.042;13.806;2023-04-25T06:15:46;7.50;;;3.17;;
65377;SDS011;51982;51.042;13.806;2023-04-25T06:18:11;6.57;;;3.20;;
65377;SDS011;51982;51.042;13.806;2023-04-25T06:20:36;4.80;;;2.80;;
65377;SDS011;51982;51.042;13.806;2023-04-25T06:23:01;4.20;;;2.60;;
65377;SDS011;51982;51.042;13.806;2023-04-25T06:25:27;5.90;;;3.17;;
65377;SDS011;51982;51.042;13.806;2023-04-25T06:27:52;8.05;;;3.42;;
65377;SDS011;51982;51.042;13.806;2023-04-25T06:30:17;5.63;;;3.60;;
65377;SDS011;51982;51.042;13.806;2023-04-25T06:32:47;10.52;;;3.03;;
65377;SDS011;51982;51.042;13.806;2023-04-25T06:35:12;9.23;;;3.40;;
65377;SDS011;51982;51.042;13.806;2023-04-25T06:37:38;7.20;;;3.50;;
65377;SDS011;51982;51.042;13.806;2023-04-25T06:40:03;8.15;;;2.80;;
65377;SDS011;51982;51.042;13.806;2023-04-25T06:42:29;4.97;;;2.90;;
65377;SDS011;51982;51.042;13.806;2023-04-25T06:44:54;9.57;;;3.43;;
65377;SDS011;51982;51.042;13.806;2023-04-25T06:47:19;5.63;;;3.17;;
65377;SDS011;51982;51.042;13.806;2023-04-25T06:49:44;6.30;;;3.20;;
65377;SDS011;51982;51.042;13.806;2023-04-25T06:52:10;7.47;;;2.87;;
65377;SDS011;51982;51.042;13.806;2023-04-25T06:54:35;8.68;;;3.10;;
65377;SDS011;51982;51.042;13.806;2023-04-25T06:57:01;6.97;;;3.08;;
65377;SDS011;51982;51.042;13.806;2023-04-25T06:59:26;6.18;;;3.05;;
65377;SDS011;51982;51.042;13.806;2023-04-25T07:01:51;5.20;;;2.50;;
65377;SDS011;51982;51.042;13.806;2023-04-25T07:04:17;8.70;;;2.70;;
65377;SDS011;51982;51.042;13.806;2023-04-25T07:06:42;6.30;;;2.80;;
65377;SDS011;51982;51.042;13.806;2023-04-25T07:09:08;7.28;;;3.05;;
65377;SDS011;51982;51.042;13.806;2023-04-25T07:11:34;6.72;;;2.92;;
65377;SDS011;51982;51.042;13.806;2023-04-25T07:14:00;8.77;;;3.03;;
65377;SDS011;51982;51.042;13.806;2023-04-25T07:16:25;6.35;;;2.85;;
65377;SDS011;51982;51.042;13.806;2023-04-25T07:18:50;6.23;;;3.00;;
65377;SDS011;51982;51.042;13.806;2023-04-25T07:21:16;8.18;;;3.30;;
65377;SDS011;51982;51.042;13.806;2023-04-25T07:23:41;5.07;;;2.73;;
65377;SDS011;51982;51.042;13.806;2023-04-25T07:26:06;5.33;;;3.00;;
65377;SDS011;51982;51.042;13.806;2023-04-25T07:28:31;5.63;;;2.45;;
65377;SDS011;51982;51.042;13.806;2023-04-25T07:30:57;4.93;;;2.33;;
65377;SDS011;51982;51.042;13.806;2023-04-25T07:33:23;3.97;;;2.47;;
65377;SDS011;51982;51.042;13.806;2023-04-25T07:35:48;6.50;;;2.85;;
65377;SDS011;51982;51.042;13.806;2023-04-25T07:38:13;7.07;;;2.83;;
65377;SDS011;51982;51.042;13.806;2023-04-25T07:40:38;4.23;;;2.60;;
65377;SDS011;51982;51.042;13.806;2023-04-25T07:43:04;4.87;;;2.70;;
65377;SDS011;51982;51.042;13.806;2023-04-25T07:45:29;7.27;;;2.80;;
65377;SDS011;51982;51.042;13.806;2023-04-25T07:47:54;4.70;;;2.50;;
65377;SDS011;51982;51.042;13.806;2023-04-25T07:50:19;6.90;;;3.03;;
65377;SDS011;51982;51.042;13.806;2023-04-25T07:52:44;3.78;;;2.70;;
65377;SDS011;51982;51.042;13.806;2023-04-25T07:55:10;9.93;;;2.75;;
65377;SDS011;51982;51.042;13.806;2023-04-25T07:57:35;5.13;;;2.63;;
65377;SDS011;51982;51.042;13.806;2023-04-25T08:00:00;7.77;;;2.10;;
65377;SDS011;51982;51.042;13.806;2023-04-25T08:02:25;4.13;;;2.50;;
65377;SDS011;51982;51.042;13.806;2023-04-25T08:04:53;5.22;;;2.45;;
65377;SDS011;51982;51.042;13.806;2023-04-25T08:07:18;5.75;;;2.15;;
65377;SDS011;51982;51.042;13.806;2023-04-25T08:09:43;3.77;;;2.20;;
65377;SDS011;51982;51.042;13.806;2023-04-25T08:12:09;5.13;;;2.13;;
65377;SDS011;51982;51.042;13.806;2023-04-25T08:14:34;6.57;;;2.38;;
65377;SDS011;51982;51.042;13.806;2023-04-25T08:17:04;4.13;;;2.38;;
65377;SDS011;51982;51.042;13.806;2023-04-25T08:19:30;3.28;;;1.80;;
65377;SDS011;51982;51.042;13.806;2023-04-25T08:21:55;4.95;;;2.40;;
65377;SDS011;51982;51.042;13.806;2023-04-25T08:24:21;4.20;;;1.92;;
65377;SDS011;51982;51.042;13.806;2023-04-25T08:26:47;5.55;;;2.20;;
65377;SDS011;51982;51.042;13.806;2023-04-25T08:29:12;3.92;;;1.90;;
65377;SDS011;51982;51.042;13.806;2023-04-25T08:31:37;2.95;;;1.70;;
65377;SDS011;51982;51.042;13.806;2023-04-25T08:34:02;3.53;;;1.90;;
65377;SDS011;51982;51.042;13.806;2023-04-25T08:36:27;4.40;;;2.10;;
65377;SDS011;51982;51.042;13.806;2023-04-25T08:38:53;3.28;;;1.80;;
65377;SDS011;51982;51.042;13.806;2023-04-25T08:41:18;3.80;;;2.00;;
65377;SDS011;51982;51.042;13.806;2023-04-25T08:43:45;3.70;;;1.45;;
65377;SDS011;51982;51.042;13.806;2023-04-25T08:46:13;2.75;;;1.77;;
65377;SDS011;51982;51.042;13.806;2023-04-25T08:48:43;2.38;;;1.58;;
65377;SDS011;51982;51.042;13.806;2023-04-25T08:51:09;2.90;;;1.90;;
65377;SDS011;51982;51.042;13.806;2023-04-25T08:53:38;4.60;;;2.00;;
65377;SDS011;51982;51.042;13.806;2023-04-25T08:56:07;4.78;;;1.98;;
65377;SDS011;51982;51.042;13.806;2023-04-25T08:58:34;3.35;;;2.03;;
65377;SDS011;51982;51.042;13.806;2023-04-25T09:01:00;7.43;;;2.03;;
65377;SDS011;51982;51.042;13.806;2023-04-25T09:03:25;5.82;;;1.55;;
65377;SDS011;51982;51.042;13.806;2023-04-25T09:05:51;9.13;;;2.13;;
65377;SDS011;51982;51.042;13.806;2023-04-25T09:08:16;8.13;;;2.25;;
65377;SDS011;51982;51.042;13.806;2023-04-25T09:10:41;3.22;;;2.13;;
65377;SDS011;51982;51.042;13.806;2023-04-25T09:13:11;7.60;;;2.27;;
65377;SDS011;51982;51.042;13.806;2023-04-25T09:15:48;4.32;;;2.22;;
65377;SDS011;51982;51.042;13.806;2023-04-25T09:18:21;3.70;;;2.00;;
65377;SDS011;51982;51.042;13.806;2023-04-25T09:20:54;8.27;;;2.30;;
65377;SDS011;51982;51.042;13.806;2023-04-25T09:23:22;6.35;;;2.28;;
65377;SDS011;51982;51.042;13.806;2023-04-25T09:25:49;5.68;;;2.20;;
65377;SDS011;51982;51.042;13.806;2023-04-25T09:28:16;4.63;;;2.30;;
65377;SDS011;51982;51.042;13.806;2023-04-25T09:30:47;5.07;;;2.33;;
65377;SDS011;51982;51.042;13.806;2023-04-25T09:33:12;3.07;;;1.90;;
65377;SDS011;51982;51.042;13.806;2023-04-25T09:35:42;8.35;;;3.08;;
65377;SDS011;51982;51.042;13.806;2023-04-25T09:40:38;3.65;;;2.10;;
65377;SDS011;51982;51.042;13.806;2023-04-25T09:43:08;3.88;;;2.10;;
65377;SDS011;51982;51.042;13.806;2023-04-25T09:45:54;4.88;;;1.88;;
65377;SDS011;51982;51.042;13.806;2023-04-25T09:48:22;5.72;;;2.00;;
65377;SDS011;51982;51.042;13.806;2023-04-25T09:51:07;3.85;;;2.40;;
65377;SDS011;51982;51.042;13.806;2023-04-25T09:53:34;5.85;;;2.83;;
65377;SDS011;51982;51.042;13.806;2023-04-25T09:56:03;6.32;;;3.03;;
65377;SDS011;51982;51.042;13.806;2023-04-25T09:58:30;7.00;;;2.60;;
65377;SDS011;51982;51.042;13.806;2023-04-25T10:00:57;6.53;;;2.47;;
65377;SDS011;51982;51.042;13.806;2023-04-25T10:03:25;4.68;;;2.75;;
65377;SDS011;51982;51.042;13.806;2023-04-25T10:05:51;8.50;;;2.55;;
65377;SDS011;51982;51.042;13.806;2023-04-25T10:08:18;4.82;;;2.83;;
65377;SDS011;51982;51.042;13.806;2023-04-25T10:10:44;4.40;;;2.92;;
65377;SDS011;51982;51.042;13.806;2023-04-25T10:13:11;4.45;;;2.90;;
65377;SDS011;51982;51.042;13.806;2023-04-25T10:15:39;5.35;;;2.40;;
65377;SDS011;51982;51.042;13.806;2023-04-25T10:18:05;6.43;;;2.55;;
65377;SDS011;51982;51.042;13.806;2023-04-25T10:20:31;4.80;;;2.45;;
65377;SDS011;51982;51.042;13.806;2023-04-25T10:22:58;6.45;;;2.20;;
65377;SDS011;51982;51.042;13.806;2023-04-25T10:25:31;5.32;;;2.40;;
65377;SDS011;51982;51.042;13.806;2023-04-25T10:27:56;4.40;;;2.33;;
65377;SDS011;51982;51.042;13.806;2023-04-25T10:30:24;4.53;;;2.10;;
65377;SDS011;51982;51.042;13.806;2023-04-25T10:32:49;4.57;;;2.40;;
65377;SDS011;51982;51.042;13.806;2023-04-25T10:35:19;7.75;;;2.20;;
65377;SDS011;51982;51.042;13.806;2023-04-25T10:37:59;4.43;;;2.00;;
65377;SDS011;51982;51.042;13.806;2023-04-25T10:40:25;5.00;;;2.22;;
65377;SDS011;51982;51.042;13.806;2023-04-25T10:42:51;4.30;;;2.67;;
65377;SDS011;51982;51.042;13.806;2023-04-25T10:45:18;2.67;;;2.05;;
65377;SDS011;51982;51.042;13.806;2023-04-25T10:47:43;4.88;;;2.25;;
65377;SDS011;51982;51.042;13.806;2023-04-25T10:50:14;4.80;;;2.40;;
65377;SDS011;51982;51.042;13.806;2023-04-25T10:52:41;5.47;;;2.58;;
65377;SDS011;51982;51.042;13.806;2023-04-25T10:55:07;3.80;;;2.33;;
65377;SDS011;51982;51.042;13.806;2023-04-25T10:57:36;5.70;;;2.50;;
65377;SDS011;51982;51.042;13.806;2023-04-25T11:00:15;3.63;;;2.30;;
65377;SDS011;51982;51.042;13.806;2023-04-25T11:05:08;5.07;;;2.30;;
65377;SDS011;51982;51.042;13.806;2023-04-25T11:07:49;4.32;;;2.55;;
65377;SDS011;51982;51.042;13.806;2023-04-25T11:10:16;4.90;;;2.50;;
65377;SDS011;51982;51.042;13.806;2023-04-25T11:12:42;5.13;;;2.85;;
65377;SDS011;51982;51.042;13.806;2023-04-25T11:15:08;4.35;;;2.63;;
65377;SDS011;51982;51.042;13.806;2023-04-25T11:17:34;8.48;;;3.70;;
65377;SDS011;51982;51.042;13.806;2023-04-25T11:19:59;6.25;;;3.17;;
65377;SDS011;51982;51.042;13.806;2023-04-25T11:22:26;5.55;;;3.10;;
65377;SDS011;51982;51.042;13.806;2023-04-25T11:24:52;6.00;;;2.65;;
65377;SDS011;51982;51.042;13.806;2023-04-25T11:27:17;8.20;;;3.35;;
65377;SDS011;51982;51.042;13.806;2023-04-25T11:29:43;6.82;;;2.85;;
65377;SDS011;51982;51.042;13.806;2023-04-25T11:32:08;3.90;;;2.15;;
65377;SDS011;51982;51.042;13.806;2023-04-25T11:34:33;4.70;;;2.20;;
65377;SDS011;51982;51.042;13.806;2023-04-25T11:36:59;4.68;;;2.20;;
65377;SDS011;51982;51.042;13.806;2023-04-25T11:39:26;4.18;;;2.17;;
65377;SDS011;51982;51.042;13.806;2023-04-25T11:41:51;4.18;;;2.00;;
65377;SDS011;51982;51.042;13.806;2023-04-25T11:44:18;3.70;;;1.42;;
65377;SDS011;51982;51.042;13.806;2023-04-25T11:46:44;3.70;;;1.80;;
65377;SDS011;51982;51.042;13.806;2023-04-25T11:49:10;5.38;;;1.77;;
65377;SDS011;51982;51.042;13.806;2023-04-25T11:51:39;6.40;;;1.63;;
65377;SDS011;51982;51.042;13.806;2023-04-25T11:54:09;3.28;;;1.70;;
65377;SDS011;51982;51.042;13.806;2023-04-25T11:56:35;4.43;;;1.40;;
65377;SDS011;51982;51.042;13.806;2023-04-25T11:59:01;2.92;;;1.23;;
65377;SDS011;51982;51.042;13.806;2023-04-25T12:01:31;3.95;;;1.10;;
65377;SDS011;51982;51.042;13.806;2023-04-25T12:03:58;1.50;;;0.85;;
65377;SDS011;51982;51.042;13.806;2023-04-25T12:06:42;2.83;;;1.20;;
65377;SDS011;51982;51.042;13.806;2023-04-25T12:09:09;4.85;;;1.10;;
65377;SDS011;51982;51.042;13.806;2023-04-25T12:11:48;2.25;;;1.20;;
65377;SDS011;51982;51.042;13.806;2023-04-25T12:14:22;4.20;;;1.50;;
65377;SDS011;51982;51.042;13.806;2023-04-25T12:16:49;5.18;;;1.60;;
65377;SDS011;51982;51.042;13.806;2023-04-25T12:19:15;3.95;;;1.52;;
65377;SDS011;51982;51.042;13.806;2023-04-25T12:21:41;3.72;;;1.63;;
65377;SDS011;51982;51.042;13.806;2023-04-25T12:24:10;2.47;;;1.42;;
65377;SDS011;51982;51.042;13.806;2023-04-25T12:29:25;4.55;;;1.52;;
65377;SDS011;51982;51.042;13.806;2023-04-25T12:31:53;13.45;;;2.20;;
65377;SDS011;51982;51.042;13.806;2023-04-25T12:34:19;7.55;;;2.10;;
65377;SDS011;51982;51.042;13.806;2023-04-25T12:36:46;7.97;;;1.90;;
65377;SDS011;51982;51.042;13.806;2023-04-25T12:39:18;9.23;;;2.50;;
65377;SDS011;51982;51.042;13.806;2023-04-25T12:41:47;10.10;;;2.00;;
65377;SDS011;51982;51.042;13.806;2023-04-25T12:44:17;6.50;;;1.85;;
65377;SDS011;51982;51.042;13.806;2023-04-25T12:46:42;8.40;;;2.00;;
65377;SDS011;51982;51.042;13.806;2023-04-25T12:49:07;9.82;;;1.80;;
65377;SDS011;51982;51.042;13.806;2023-04-25T12:51:36;5.70;;;1.98;;
65377;SDS011;51982;51.042;13.806;2023-04-25T12:54:02;10.40;;;2.25;;
65377;SDS011;51982;51.042;13.806;2023-04-25T12:56:28;7.38;;;2.15;;
65377;SDS011;51982;51.042;13.806;2023-04-25T12:58:54;4.32;;;1.67;;
65377;SDS011;51982;51.042;13.806;2023-04-25T13:01:20;8.73;;;2.20;;
65377;SDS011;51982;51.042;13.806;2023-04-25T13:03:45;5.43;;;1.77;;
65377;SDS011;51982;51.042;13.806;2023-04-25T13:06:11;5.68;;;2.33;;
65377;SDS011;51982;51.042;13.806;2023-04-25T13:08:37;6.55;;;2.00;;
65377;SDS011;51982;51.042;13.806;2023-04-25T13:11:03;5.68;;;2.13;;
65377;SDS011;51982;51.042;13.806;2023-04-25T13:13:29;10.13;;;2.30;;
65377;SDS011;51982;51.042;13.806;2023-04-25T13:15:56;8.25;;;2.42;;
65377;SDS011;51982;51.042;13.806;2023-04-25T13:18:21;8.15;;;2.22;;
65377;SDS011;51982;51.042;13.806;2023-04-25T13:20:51;8.55;;;2.20;;
65377;SDS011;51982;51.042;13.806;2023-04-25T13:23:16;7.40;;;2.53;;
65377;SDS011;51982;51.042;13.806;2023-04-25T13:25:41;7.30;;;2.40;;
65377;SDS011;51982;51.042;13.806;2023-04-25T13:28:07;8.75;;;2.53;;
65377;SDS011;51982;51.042;13.806;2023-04-25T13:30:32;10.23;;;2.30;;
65377;SDS011;51982;51.042;13.806;2023-04-25T13:32:57;8.55;;;2.38;;
65377;SDS011;51982;51.042;13.806;2023-04-25T13:35:27;6.78;;;2.50;;
65377;SDS011;51982;51.042;13.806;2023-04-25T13:37:53;14.10;;;2.97;;
65377;SDS011;51982;51.042;13.806;2023-04-25T13:40:18;13.40;;;2.88;;
65377;SDS011;51982;51.042;13.806;2023-04-25T13:42:43;10.60;;;1.90;;
65377;SDS011;51982;51.042;13.806;2023-04-25T13:45:10;7.78;;;2.47;;
65377;SDS011;51982;51.042;13.806;2023-04-25T13:47:35;10.48;;;2.58;;
65377;SDS011;51982;51.042;13.806;2023-04-25T13:50:01;7.30;;;2.20;;
65377;SDS011;51982;51.042;13.806;2023-04-25T13:52:28;10.35;;;2.58;;
65377;SDS011;51982;51.042;13.806;2023-04-25T13:54:53;8.25;;;2.30;;
65377;SDS011;51982;51.042;13.806;2023-04-25T13:57:19;9.90;;;2.15;;
65377;SDS011;51982;51.042;13.806;2023-04-25T13:59:44;10.35;;;2.13;;
65377;SDS011;51982;51.042;13.806;2023-04-25T14:02:11;13.60;;;2.47;;
65377;SDS011;51982;51.042;13.806;2023-04-25T14:04:36;6.75;;;2.42;;
65377;SDS011;51982;51.042;13.806;2023-04-25T14:07:02;7.95;;;2.30;;
65377;SDS011;51982;51.042;13.806;2023-04-25T14:09:28;12.52;;;2.65;;
65377;SDS011;51982;51.042;13.806;2023-04-25T14:11:54;12.30;;;2.33;;
65377;SDS011;51982;51.042;13.806;2023-04-25T14:14:20;6.97;;;2.20;;
65377;SDS011;51982;51.042;13.806;2023-04-25T14:16:46;9.45;;;2.58;;
65377;SDS011;51982;51.042;13.806;2023-04-25T14:19:16;14.15;;;2.22;;
65377;SDS011;51982;51.042;13.806;2023-04-25T14:21:42;5.28;;;1.88;;
65377;SDS011;51982;51.042;13.806;2023-04-25T14:24:08;9.85;;;2.05;;
65377;SDS011;51982;51.042;13.806;2023-04-25T14:26:34;9.18;;;2.55;;
65377;SDS011;51982;51.042;13.806;2023-04-25T14:29:00;12.30;;;2.58;;
65377;SDS011;51982;51.042;13.806;2023-04-25T14:31:26;13.02;;;2.40;;
65377;SDS011;51982;51.042;13.806;2023-04-25T14:33:51;15.77;;;2.63;;
65377;SDS011;51982;51.042;13.806;2023-04-25T14:36:16;8.83;;;2.20;;